Harrisburg International Airport
KMDT : now visible

Airfield :











YOU CAN JOIN US ON...

 
LOGIN :

Register | Disclaimer

   EN    FR    IT 

 









Legend :    VFR   Marginal VFR   IFR   Intensive IFR   Very Intensive IFR
Visi :
Ceiling :
>= 8 km
>= 3000ft
5 to 8 km
1000 to 3000 ft
1500m to 5 km
500 to 1000 ft
800 to 1500m
200 to 500 ft
< 800m
< 200 ft
Symbols :   Thunderstorms  Fog  Heavy snow  Heavy precipitations  Wind > 20 kt






- Airport Elevation : 310 ft
- IATA code : MDT


KMDT - Harrisburg International

CURRENT METAR :
  • 212356Z 12005KT 10SM FEW250 19/16 A3020 RMK AO2 SLP226 T01890161 10256 20189 53010

EXPIRED METARs :
  • 212256Z 14005KT 10SM FEW040 FEW250 19/16 A3018 RMK AO2 SLP222 T01940161
  • 212156Z 15006KT 10SM FEW040 FEW250 23/17 A3017 RMK AO2 SLP216 T02330167

TAF KMDT
Valid from the 22 at 00:00 until the 23 at 00:00 UTC


212339Z 2200/2224 14007KT P6SM SKC
FM220400 00000KT 5SM BR OVC007
FM220600 00000KT 1/4SM FG OVC003
FM221300 00000KT 3SM BR OVC010
FM221600 15003KT P6SM BKN025
FM221800 17003KT P6SM SCT250
KZNY FIR / North America



MET'MAP, your aeronautical weather chart ! - Copyright ORBIFLY December 2007 - Disclaimer

ORBIFLY MET'MAP TEAM :

Programming & Development : Alexandra Zaïnal
Concept & original design : Baudouin d'Aumeries
Assistance for programming : Marc-Olivier Méhu
Technical & hardware support : Manuel Goepfert

Contact : metmap@orbifly.com




SOURCES & CREDITS :

   NOAA       Earth
Advisory